Lisbon Geof, Portugal

1:34 AM WEST on August 28, 2015 (GMT +0100)
lisboa | | Change Station
CLOSE
Current Station
Personal Weather Station
Location: Lisboa, LISBOA
Elevation: 269 ft
Nearby Weather Stations

Elev 269 ft 38.73 °N, 9.14 °W | Updated 6 seconds ago

Partly Cloudy
Partly Cloudy
71.8 °F
Feels Like 71 °F
N
0.9
Wind Variable Wind from ESE
Gusts 4.0 mph

Today
High -- | Low -- °F
--% Chance of Precip.
Yesterday
High -- | Low -- °F
Precip. -- in
7:01 AM 8:13 PM
Waxing Gibbous, 95% visible
Pressure 30.04 in
Visibility 6.2 miles
Clouds Few 1000 ft
Heat Index 71 °F
Dew Point 67 °F
Humidity 84%
Rainfall 0.00 in
Snow Depth Not available.
UV 0.0 out of 12
Pollen Not available.
Air Quality Not available.
Flu Activity Not available.
METAR LPPT 280000Z 30006KT 9999 FEW010 21/19 Q1017
Pressure 30.04 in
Visibility 6.2 miles
Clouds Few 1000 ft
Heat Index 71 °F
Dew Point 67 °F
Humidity 84%
Rainfall 0.00 in
Snow Depth Not available.
UV 0.0 out of 12
Pollen Not available.
Air Quality Not available.
Flu Activity Not available.
METAR LPPT 280000Z 30006KT 9999 FEW010 21/19 Q1017

10-Day Weather Forecast

×

Almanac

Astronomy

Aug. 28, 2015 Rise Set
Actual Time
Civil Twilight
Nautical Twilight
Astronomical Twilight
Moon
Length of Visible Light
Length of Day
Tomorrow will be .
, % of the Moon is Illuminated

Today's Extremes

Country Highs Country Lows

Community

WunderPhotos

Upload Photos

1,850,276 photos uploaded!

WunderBlogs® & News

Nearby

Air Quality

  Air Quality AQ Index Pollutant
Not available.

Snow Depth

Station Depth Elevation

Earthquake Activity

City Distance Mag. Time & Date
Minimum magnitude displayed is 2.5.

Coastal Water Temperatures

Place Temperature

Stations

Nearby Weather Stations

Station Location Temp. Windchill Dew Point Humidity Wind Precip. Elev Updated Type